Time;durP1;ratioP1;P1;durP2;ratioP2;P2;SDS_P1;SDS_P2;PMS_P1;PMS_P2;Temp;Humidity;BMP_temperature;BMP_pressure;BME280_temperature;BME280_humidity;BME280_pressure;Samples;Min_cycle;Max_cycle;Signal;HPM_P1;HPM_P2
2021/03/20 00:00:58;;;;;;;3.70;2.53;;;7.00;99.90;;;;;;4964439;28;20461;-88
2021/03/20 00:03:24;;;;;;;4.32;2.72;;;7.00;99.90;;;;;;4968102;28;20030;-91
2021/03/20 00:05:50;;;;;;;4.75;2.75;;;7.00;99.90;;;;;;4965211;28;20342;-92
2021/03/20 00:08:19;;;;;;;3.15;2.63;;;7.00;99.90;;;;;;4966535;28;20041;-91
2021/03/20 00:10:46;;;;;;;3.30;2.40;;;7.00;99.90;;;;;;4948806;28;20027;-91
2021/03/20 00:13:13;;;;;;;4.57;2.60;;;7.00;99.90;;;;;;4967126;28;20023;-91
2021/03/20 00:15:39;;;;;;;3.15;2.78;;;7.00;99.90;;;;;;4966035;28;20114;-91
2021/03/20 00:18:05;;;;;;;5.88;3.28;;;7.00;99.90;;;;;;4965453;28;20106;-92
2021/03/20 00:20:34;;;;;;;3.90;2.90;;;7.00;99.90;;;;;;4965220;28;20039;-91
2021/03/20 00:23:00;;;;;;;3.80;3.03;;;7.00;99.90;;;;;;4964926;28;20030;-92
2021/03/20 00:25:27;;;;;;;6.85;3.20;;;7.00;99.90;;;;;;4965407;28;20034;-90
2021/03/20 00:27:53;;;;;;;4.10;2.72;;;7.00;99.90;;;;;;4949207;28;20033;-91
2021/03/20 00:30:20;;;;;;;5.03;2.80;;;7.00;99.90;;;;;;4965128;28;20035;-92
2021/03/20 00:32:46;;;;;;;5.22;3.00;;;7.00;99.90;;;;;;4967429;28;20023;-92
2021/03/20 00:35:13;;;;;;;4.95;3.42;;;7.00;99.90;;;;;;4963623;28;20015;-92
2021/03/20 00:37:39;;;;;;;4.82;3.72;;;7.00;99.90;;;;;;4966016;28;20050;-92
2021/03/20 00:40:08;;;;;;;6.22;3.92;;;6.90;99.90;;;;;;4966052;28;20061;-93
2021/03/20 00:42:34;;;;;;;5.72;3.70;;;7.00;99.90;;;;;;4966883;28;20097;-92
2021/03/20 00:45:00;;;;;;;4.47;3.22;;;7.00;99.90;;;;;;4966099;28;20448;-91
2021/03/20 00:47:26;;;;;;;5.28;3.58;;;7.00;99.90;;;;;;4949226;28;20027;-92
2021/03/20 00:49:51;;;;;;;7.00;3.67;;;7.00;99.90;;;;;;4971018;28;20031;-89
2021/03/20 00:52:17;;;;;;;6.32;3.97;;;7.00;99.90;;;;;;4963067;28;20397;-90
2021/03/20 00:54:43;;;;;;;9.30;3.60;;;7.00;99.90;;;;;;4967592;28;20024;-91
2021/03/20 00:57:08;;;;;;;5.93;3.88;;;7.00;99.90;;;;;;4965916;28;20035;-91
2021/03/20 00:59:34;;;;;;;4.68;3.65;;;7.00;99.90;;;;;;4971104;28;20019;-93
2021/03/20 01:02:00;;;;;;;5.45;4.20;;;7.00;99.90;;;;;;4967185;28;20061;-92
2021/03/20 01:04:25;;;;;;;5.85;3.88;;;7.00;99.90;;;;;;4971115;28;20388;-90
2021/03/20 01:06:51;;;;;;;6.35;4.05;;;7.00;99.90;;;;;;4969070;28;20073;-90
2021/03/20 01:09:17;;;;;;;7.53;4.05;;;7.00;99.90;;;;;;4966893;28;20029;-91
2021/03/20 01:11:43;;;;;;;4.75;3.47;;;7.00;99.90;;;;;;4963640;28;20046;-91
2021/03/20 01:14:09;;;;;;;5.97;3.30;;;7.00;99.90;;;;;;4964712;28;20473;-93
2021/03/20 01:16:36;;;;;;;4.88;3.60;;;7.00;99.90;;;;;;4977872;28;20042;-92
2021/03/20 01:19:02;;;;;;;6.13;3.30;;;7.00;99.90;;;;;;4966944;28;20041;-92
2021/03/20 01:21:27;;;;;;;4.63;2.97;;;7.00;99.90;;;;;;4966148;28;20084;-91
2021/03/20 01:23:53;;;;;;;4.25;3.08;;;7.00;99.90;;;;;;4967863;28;20030;-92
2021/03/20 01:26:20;;;;;;;5.40;2.97;;;7.00;99.90;;;;;;4983619;28;20090;-90
2021/03/20 01:28:46;;;;;;;5.00;3.40;;;7.00;99.90;;;;;;4966464;28;20484;-92
2021/03/20 01:31:14;;;;;;;4.78;3.53;;;7.00;99.90;;;;;;4985049;28;20141;-92
2021/03/20 01:33:41;;;;;;;5.72;3.33;;;7.00;99.90;;;;;;4982449;28;20623;-90
2021/03/20 01:36:08;;;;;;;5.05;3.65;;;7.00;99.90;;;;;;4981648;28;20038;-91
2021/03/20 01:38:33;;;;;;;4.47;3.20;;;7.00;99.90;;;;;;4982752;28;20023;-92
2021/03/20 01:41:08;;;;;;;4.68;3.20;;;7.00;99.90;;;;;;4983242;28;20053;-91
2021/03/20 01:43:35;;;;;;;3.88;2.75;;;7.00;99.90;;;;;;4966121;28;20033;-92
2021/03/20 01:46:38;;;;;;;5.30;2.95;;;7.00;99.90;;;;;;4984496;28;20042;-92
2021/03/20 01:49:36;;;;;;;4.80;2.28;;;7.00;99.90;;;;;;4990772;28;20088;-92
2021/03/20 01:52:25;;;;;;;3.30;2.45;;;7.00;99.90;;;;;;4978753;28;20034;-90
2021/03/20 01:54:58;;;;;;;3.88;3.00;;;7.00;99.90;;;;;;4971128;28;20559;-91
2021/03/20 01:57:29;;;;;;;4.50;2.53;;;7.00;99.90;;;;;;4993548;28;20034;-89
2021/03/20 01:59:57;;;;;;;4.55;3.17;;;7.00;99.90;;;;;;5007949;28;20018;-89
2021/03/20 02:02:23;;;;;;;5.20;3.28;;;7.00;99.90;;;;;;4987080;28;20034;-89
2021/03/20 02:04:49;;;;;;;4.05;2.78;;;7.00;99.90;;;;;;4990803;28;20034;-91
2021/03/20 02:07:15;;;;;;;4.72;3.03;;;6.90;99.90;;;;;;4989057;28;20105;-88
2021/03/20 02:09:40;;;;;;;5.78;3.55;;;7.00;99.90;;;;;;4972169;28;20566;-89
2021/03/20 02:12:28;;;;;;;6.45;4.18;;;6.90;99.90;;;;;;4987329;28;20492;-90
2021/03/20 02:14:59;;;;;;;9.55;5.88;;;6.90;99.90;;;;;;4986093;28;20018;-90
2021/03/20 02:17:47;;;;;;;7.63;5.05;;;6.90;99.90;;;;;;4964836;28;20082;-91
2021/03/20 02:20:42;;;;;;;9.70;6.10;;;6.90;99.90;;;;;;4952991;28;20032;-91
2021/03/20 02:23:08;;;;;;;7.95;5.20;;;6.90;99.90;;;;;;4976462;28;20054;-92
2021/03/20 02:25:52;;;;;;;9.40;4.90;;;6.90;99.90;;;;;;4967357;28;20031;-93
2021/03/20 02:28:56;;;;;;;7.32;4.30;;;6.90;99.90;;;;;;4968425;28;20031;-90
2021/03/20 02:31:37;;;;;;;6.13;3.88;;;7.00;99.90;;;;;;4958661;28;20098;-92
2021/03/20 02:34:32;;;;;;;7.13;4.05;;;6.90;99.90;;;;;;4967801;28;20048;-93
2021/03/20 02:37:06;;;;;;;4.95;3.38;;;6.90;99.90;;;;;;4968456;28;20038;-90
2021/03/20 02:39:59;;;;;;;7.18;3.92;;;6.90;99.90;;;;;;4970420;28;20572;-94
2021/03/20 02:42:52;;;;;;;7.03;3.90;;;6.80;99.90;;;;;;4968739;28;20038;-91
2021/03/20 02:45:31;;;;;;;4.85;3.25;;;6.80;99.90;;;;;;4966426;28;20034;-92
2021/03/20 02:48:07;;;;;;;8.65;2.97;;;6.80;99.90;;;;;;4967350;28;20023;-93
2021/03/20 02:50:50;;;;;;;7.20;3.47;;;6.80;99.90;;;;;;4963993;28;20031;-90
2021/03/20 02:53:25;;;;;;;4.57;2.80;;;6.70;99.90;;;;;;4970581;28;20035;-92
2021/03/20 02:55:56;;;;;;;3.50;2.83;;;6.80;99.90;;;;;;4971319;28;20088;-91
2021/03/20 02:58:37;;;;;;;5.13;2.97;;;6.70;99.90;;;;;;4973061;28;20485;-93
2021/03/20 03:01:08;;;;;;;;;;;6.70;99.90;;;;;;4975016;28;20037;-92
2021/03/20 03:03:38;;;;;;;3.97;2.33;;;6.70;99.90;;;;;;4982237;28;20557;-89
2021/03/20 03:06:39;;;;;;;6.13;2.70;;;6.70;99.90;;;;;;4974932;28;20070;-92
2021/03/20 03:09:11;;;;;;;;;;;6.70;99.90;;;;;;4968419;28;20026;-91
2021/03/20 03:11:55;;;;;;;3.92;2.50;;;6.70;99.90;;;;;;4968851;28;19949;-91
2021/03/20 03:14:39;;;;;;;3.30;2.50;;;6.70;99.90;;;;;;4967174;28;20034;-91
2021/03/20 03:17:06;;;;;;;4.35;2.28;;;6.70;99.90;;;;;;4948091;29;20058;-91
2021/03/20 03:19:39;;;;;;;3.58;2.65;;;6.70;99.90;;;;;;4948319;29;20413;-92
2021/03/20 03:22:11;;;;;;;4.88;2.80;;;6.70;99.90;;;;;;4949529;29;20797;-92
2021/03/20 03:24:39;;;;;;;4.05;2.25;;;6.70;99.90;;;;;;4949518;29;20028;-90
2021/03/20 03:27:12;;;;;;;4.40;2.60;;;6.70;99.90;;;;;;4946863;29;20023;-91
2021/03/20 03:29:37;;;;;;;3.10;2.15;;;6.70;99.90;;;;;;4946515;28;20520;-91
2021/03/20 03:32:14;;;;;;;3.47;1.98;;;6.70;99.90;;;;;;4946416;29;20031;-91
2021/03/20 03:34:56;;;;;;;2.65;1.83;;;6.70;99.90;;;;;;4945888;29;20028;-93
2021/03/20 03:37:41;;;;;;;2.78;1.83;;;6.70;99.90;;;;;;4947730;29;20496;-91
2021/03/20 03:40:17;;;;;;;2.72;1.92;;;6.80;99.90;;;;;;4947876;29;20031;-93
2021/03/20 03:42:45;;;;;;;2.20;1.77;;;6.80;99.90;;;;;;4946804;29;20028;-92
2021/03/20 03:45:12;;;;;;;2.33;1.70;;;6.80;99.90;;;;;;4946714;28;20481;-91
2021/03/20 03:47:38;;;;;;;3.90;1.77;;;6.80;99.90;;;;;;4946465;29;20024;-91
2021/03/20 03:50:10;;;;;;;4.28;2.30;;;6.70;99.90;;;;;;4946729;29;20496;-92
2021/03/20 03:52:36;;;;;;;3.65;2.65;;;6.70;99.90;;;;;;4948432;29;20028;-90
2021/03/20 03:55:04;;;;;;;3.15;2.13;;;6.70;99.90;;;;;;4945745;29;20032;-91
2021/03/20 03:58:03;;;;;;;2.33;1.92;;;6.70;99.90;;;;;;4928699;29;20040;-91
2021/03/20 04:00:56;;;;;;;2.53;1.95;;;6.80;99.90;;;;;;4946755;29;20047;-90
2021/03/20 04:03:47;;;;;;;2.92;2.08;;;6.70;99.90;;;;;;4945782;29;20123;-93
2021/03/20 04:06:18;;;;;;;5.50;2.30;;;6.80;99.90;;;;;;4947063;29;20133;-90
2021/03/20 04:09:02;;;;;;;2.45;2.15;;;6.80;99.90;;;;;;4945298;29;20275;-89
2021/03/20 04:11:36;;;;;;;2.63;2.13;;;6.80;99.90;;;;;;4947305;29;20441;-92
2021/03/20 04:14:17;;;;;;;3.63;2.33;;;6.80;99.90;;;;;;4946133;29;20026;-92
2021/03/20 04:17:18;;;;;;;3.85;2.50;;;6.80;99.90;;;;;;4943558;29;20055;-90
2021/03/20 04:20:05;;;;;;;3.22;2.10;;;6.70;99.90;;;;;;4937507;29;20122;-90
2021/03/20 04:23:01;;;;;;;3.67;2.50;;;6.70;99.90;;;;;;4946098;29;20096;-92
2021/03/20 04:25:29;;;;;;;3.45;2.65;;;6.70;99.90;;;;;;4945363;29;20038;-91
2021/03/20 04:28:18;;;;;;;4.00;2.90;;;6.70;99.90;;;;;;4947820;29;20047;-91
2021/03/20 04:30:48;;;;;;;3.83;2.80;;;6.70;99.90;;;;;;4952076;29;20019;-90
2021/03/20 04:33:22;;;;;;;4.28;2.90;;;6.70;99.90;;;;;;4947722;29;20027;-91
2021/03/20 04:35:51;;;;;;;4.57;3.10;;;6.70;99.90;;;;;;4945963;29;20063;-92
2021/03/20 04:38:16;;;;;;;3.95;2.67;;;6.80;99.90;;;;;;4946741;29;20490;-92
2021/03/20 04:41:01;;;;;;;4.60;2.88;;;6.70;99.90;;;;;;4945218;29;20022;-92
2021/03/20 04:43:29;;;;;;;4.20;2.90;;;6.70;99.90;;;;;;4946532;29;20091;-91
2021/03/20 04:45:59;;;;;;;2.80;2.42;;;6.70;99.90;;;;;;4928009;29;20400;-91
2021/03/20 04:48:34;;;;;;;3.83;2.33;;;6.80;99.90;;;;;;4950320;29;20032;-91
2021/03/20 04:51:07;;;;;;;2.97;2.45;;;6.80;99.90;;;;;;4932879;29;20023;-89
2021/03/20 04:53:35;;;;;;;4.18;2.17;;;6.80;99.90;;;;;;4945962;29;20051;-91
2021/03/20 04:56:07;;;;;;;3.33;2.30;;;6.80;99.90;;;;;;4944318;29;20035;-92
2021/03/20 04:58:41;;;;;;;2.67;2.28;;;6.80;99.90;;;;;;4949151;29;20039;-90
2021/03/20 05:01:22;;;;;;;6.10;2.10;;;6.80;99.90;;;;;;4947499;29;20031;-92
2021/03/20 05:03:53;;;;;;;4.88;2.78;;;6.80;99.90;;;;;;4946779;29;20047;-93
2021/03/20 05:06:22;;;;;;;;;;;6.80;99.90;;;;;;4944933;29;20028;-91
2021/03/20 05:09:05;;;;;;;3.97;2.00;;;6.80;99.90;;;;;;4946409;28;19906;-91
2021/03/20 05:11:53;;;;;;;2.60;2.30;;;6.80;99.90;;;;;;4944909;29;20039;-91
2021/03/20 05:14:35;;;;;;;6.25;2.40;;;6.80;99.90;;;;;;4944580;29;20074;-89
2021/03/20 05:17:02;;;;;;;2.15;1.88;;;6.80;99.90;;;;;;4955944;28;20053;-91
2021/03/20 05:19:29;;;;;;;3.58;2.33;;;6.80;99.90;;;;;;4948129;28;20028;-91
2021/03/20 05:21:56;;;;;;;2.58;2.00;;;6.80;99.90;;;;;;4963459;28;20030;-92
2021/03/20 05:24:30;;;;;;;2.15;1.58;;;6.80;99.90;;;;;;4965039;28;20050;-91
2021/03/20 05:26:57;;;;;;;2.78;2.05;;;6.70;99.90;;;;;;4961839;28;20050;-91
2021/03/20 05:29:23;;;;;;;3.00;2.33;;;6.80;99.90;;;;;;4966554;28;20542;-90
2021/03/20 05:31:49;;;;;;;4.55;2.40;;;6.70;99.90;;;;;;4964787;28;20023;-92
2021/03/20 05:34:36;;;;;;;3.65;2.80;;;6.70;99.90;;;;;;4965327;28;20061;-90
2021/03/20 05:37:03;;;;;;;3.40;2.38;;;6.70;99.90;;;;;;4975495;28;20043;-90
2021/03/20 05:39:29;;;;;;;2.55;2.15;;;6.70;99.90;;;;;;4986441;28;20022;-89
2021/03/20 05:42:14;;;;;;;3.97;2.20;;;6.70;99.90;;;;;;4987778;28;20061;-89
2021/03/20 05:44:43;;;;;;;4.30;2.17;;;6.70;99.90;;;;;;4981423;28;20019;-91
2021/03/20 05:47:46;;;;;;;3.63;2.55;;;6.70;99.90;;;;;;4969544;28;20027;-91
2021/03/20 05:50:17;;;;;;;3.53;2.50;;;6.70;99.90;;;;;;4964551;28;20094;-92
2021/03/20 05:53:08;;;;;;;3.28;2.40;;;6.80;99.90;;;;;;4967500;28;20045;-91
2021/03/20 05:55:40;;;;;;;3.97;2.33;;;6.70;99.90;;;;;;4966916;28;20027;-91
2021/03/20 05:58:30;;;;;;;3.10;2.78;;;6.80;99.90;;;;;;4965155;28;20039;-89
2021/03/20 06:01:23;;;;;;;5.15;2.83;;;6.80;99.90;;;;;;4966760;28;20027;-91
2021/03/20 06:04:00;;;;;;;3.42;2.30;;;6.70;99.90;;;;;;4989028;28;20019;-91
2021/03/20 06:06:45;;;;;;;3.25;2.20;;;6.70;99.90;;;;;;4965433;28;20024;-89
2021/03/20 06:09:49;;;;;;;3.47;2.28;;;6.80;99.90;;;;;;4987463;28;20037;-91
2021/03/20 06:12:39;;;;;;;2.17;1.92;;;6.70;99.90;;;;;;4964976;28;20484;-91
2021/03/20 06:15:23;;;;;;;3.73;2.27;;;6.70;99.90;;;;;;4962170;28;20078;-93
2021/03/20 06:18:07;;;;;;;3.13;2.20;;;6.80;99.90;;;;;;4962065;28;20369;-92
2021/03/20 06:20:45;;;;;;;2.90;2.10;;;6.70;99.90;;;;;;4963522;28;20063;-92
2021/03/20 06:23:43;;;;;;;4.38;2.05;;;6.70;99.90;;;;;;4964544;28;20110;-92
2021/03/20 06:26:18;;;;;;;3.13;2.00;;;6.80;99.90;;;;;;4962623;28;20038;-92
2021/03/20 06:28:56;;;;;;;2.25;1.80;;;6.80;99.90;;;;;;4963147;28;20035;-91
2021/03/20 06:31:25;;;;;;;2.47;2.00;;;6.80;99.90;;;;;;4965405;28;20027;-90
2021/03/20 06:34:14;;;;;;;3.88;2.00;;;6.80;99.90;;;;;;4963757;28;20023;-91
2021/03/20 06:37:03;;;;;;;3.33;1.75;;;6.80;99.90;;;;;;4962938;28;20039;-90
2021/03/20 06:39:34;;;;;;;1.42;1.25;;;6.80;99.90;;;;;;4964159;28;20082;-91
2021/03/20 06:42:10;;;;;;;3.30;1.30;;;6.80;99.90;;;;;;4985168;28;20034;-93
2021/03/20 06:44:44;;;;;;;2.20;1.40;;;6.90;99.90;;;;;;4964384;28;20035;-93
2021/03/20 06:47:22;;;;;;;1.73;1.40;;;6.90;99.90;;;;;;4962610;28;20110;-92
2021/03/20 06:49:58;;;;;;;3.22;2.05;;;6.90;99.90;;;;;;4963791;28;20027;-92
2021/03/20 06:52:25;;;;;;;1.58;1.40;;;7.00;99.90;;;;;;4962554;28;20171;-92
2021/03/20 06:54:57;;;;;;;1.42;1.33;;;7.00;99.90;;;;;;4962219;28;20027;-89
2021/03/20 06:57:22;;;;;;;2.13;1.70;;;7.00;99.90;;;;;;4985203;28;20480;-92
2021/03/20 06:59:48;;;;;;;1.50;1.40;;;7.10;99.90;;;;;;4961001;28;20099;-92
2021/03/20 07:02:35;;;;;;;2.30;1.48;;;7.10;99.90;;;;;;4962662;28;20035;-91
2021/03/20 07:05:16;;;;;;;1.30;1.20;;;7.10;99.90;;;;;;4963875;28;20038;-91
2021/03/20 07:07:55;;;;;;;1.45;1.27;;;7.10;99.90;;;;;;4966092;28;20023;-93
2021/03/20 07:10:41;;;;;;;1.40;1.30;;;7.20;99.90;;;;;;4965638;28;20035;-91
2021/03/20 07:13:20;;;;;;;1.60;1.13;;;7.20;99.90;;;;;;4965520;28;20109;-91
2021/03/20 07:16:04;;;;;;;2.00;1.30;;;7.20;99.90;;;;;;4966265;28;20070;-91
2021/03/20 07:18:59;;;;;;;1.10;1.00;;;7.20;99.90;;;;;;4968394;28;20038;-89
2021/03/20 07:21:28;;;;;;;3.28;1.40;;;7.30;99.90;;;;;;4937537;28;20036;-92
2021/03/20 07:24:00;;;;;;;3.40;1.88;;;7.30;99.90;;;;;;4965728;28;20114;-91
2021/03/20 07:26:27;;;;;;;3.55;2.60;;;7.30;99.90;;;;;;4963972;28;20345;-91
2021/03/20 07:28:56;;;;;;;3.55;2.90;;;7.30;99.90;;;;;;4964154;28;20019;-90
2021/03/20 07:31:23;;;;;;;2.63;2.05;;;7.30;99.90;;;;;;4966273;28;20495;-92
2021/03/20 07:33:51;;;;;;;3.10;2.28;;;7.30;99.90;;;;;;4966299;28;20023;-92
2021/03/20 07:36:39;;;;;;;3.10;2.40;;;7.30;99.90;;;;;;4964542;28;20038;-91
2021/03/20 07:39:19;;;;;;;5.78;3.08;;;7.30;99.90;;;;;;4966834;28;20107;-91
2021/03/20 07:41:54;;;;;;;3.58;3.10;;;7.30;99.90;;;;;;4966208;28;20034;-92
2021/03/20 07:44:21;;;;;;;3.95;2.65;;;7.30;99.90;;;;;;4965899;28;20023;-96
2021/03/20 07:46:47;;;;;;;4.45;3.20;;;7.40;99.90;;;;;;4966256;28;20023;-92
2021/03/20 07:49:33;;;;;;;4.03;3.13;;;7.40;99.90;;;;;;4964463;28;20033;-89
2021/03/20 07:52:20;;;;;;;4.18;2.55;;;7.30;99.90;;;;;;4955231;28;20114;-92
2021/03/20 07:54:46;;;;;;;3.50;2.60;;;7.40;99.90;;;;;;4967020;28;20031;-91
2021/03/20 07:57:17;;;;;;;4.10;2.45;;;7.40;99.90;;;;;;4965939;28;20027;-91
2021/03/20 07:59:50;;;;;;;6.45;3.40;;;7.40;99.90;;;;;;4962434;28;20015;-91
2021/03/20 08:02:32;;;;;;;5.53;3.60;;;7.40;99.90;;;;;;4967078;28;20031;-92
2021/03/20 08:05:00;;;;;;;4.35;3.33;;;7.50;99.90;;;;;;4967872;28;20388;-90
2021/03/20 08:07:43;;;;;;;4.68;3.47;;;7.40;99.90;;;;;;4968098;28;20030;-90
2021/03/20 08:10:15;;;;;;;6.30;4.40;;;7.50;99.90;;;;;;4963275;28;20090;-92
2021/03/20 08:13:00;;;;;;;4.55;3.20;;;7.50;99.90;;;;;;4962068;28;20015;-92
2021/03/20 08:15:34;;;;;;;4.72;3.70;;;7.50;99.90;;;;;;4962232;28;20508;-92
2021/03/20 08:18:25;;;;;;;5.63;3.72;;;7.50;99.90;;;;;;4971416;28;20031;-91
2021/03/20 08:21:13;;;;;;;4.53;3.38;;;7.60;99.90;;;;;;4959371;28;20042;-92
2021/03/20 08:23:51;;;;;;;4.15;2.90;;;7.60;99.90;;;;;;4974084;28;20031;-92
2021/03/20 08:26:20;;;;;;;6.43;4.15;;;7.60;99.90;;;;;;4964337;28;20067;-91
2021/03/20 08:29:10;;;;;;;4.55;3.47;;;7.60;99.90;;;;;;4964114;28;20027;-91
2021/03/20 08:31:54;;;;;;;5.32;3.03;;;7.60;99.90;;;;;;4966016;28;20469;-92
2021/03/20 08:34:27;;;;;;;4.18;3.40;;;7.70;99.90;;;;;;4963381;28;20090;-93
2021/03/20 08:36:56;;;;;;;4.43;3.17;;;7.70;99.90;;;;;;4966786;28;20031;-91
2021/03/20 08:39:49;;;;;;;4.93;3.45;;;7.70;99.90;;;;;;4967356;28;20019;-90
2021/03/20 08:42:41;;;;;;;5.03;3.38;;;7.80;99.90;;;;;;4967720;28;20503;-93
2021/03/20 08:45:21;;;;;;;4.63;3.35;;;7.80;99.90;;;;;;4968437;28;20015;-91
2021/03/20 08:47:57;;;;;;;5.28;3.83;;;7.90;99.90;;;;;;4964130;28;20019;-90
2021/03/20 08:50:45;;;;;;;5.57;3.85;;;7.90;99.90;;;;;;4965509;28;20045;-91
2021/03/20 08:53:22;;;;;;;9.85;5.50;;;8.00;99.90;;;;;;4969535;28;20019;-94
2021/03/20 08:56:19;;;;;;;9.35;5.90;;;8.00;99.90;;;;;;4960120;28;20024;-94
2021/03/20 08:59:22;;;;;;;13.00;7.18;;;8.10;99.90;;;;;;4942234;28;20062;-96
2021/03/20 09:02:00;;;;;;;13.52;7.38;;;8.10;99.90;;;;;;4967228;28;20014;-93
2021/03/20 09:04:33;;;;;;;13.98;8.02;;;8.20;99.90;;;;;;4961975;28;20027;-90
2021/03/20 09:07:21;;;;;;;12.02;7.40;;;8.30;99.90;;;;;;4963886;28;20026;-91
2021/03/20 09:09:54;;;;;;;13.93;8.15;;;8.30;99.90;;;;;;4965012;28;20076;-92
2021/03/20 09:12:34;;;;;;;15.65;8.10;;;8.40;99.90;;;;;;4971681;28;20023;-90
2021/03/20 09:15:03;;;;;;;13.25;7.40;;;8.50;99.90;;;;;;4970582;28;20110;-92
2021/03/20 09:17:41;;;;;;;11.98;7.68;;;8.50;99.90;;;;;;4987672;28;20043;-91
2021/03/20 09:20:25;;;;;;;13.80;7.72;;;8.60;99.90;;;;;;4988269;28;20017;-91
2021/03/20 09:22:52;;;;;;;12.80;6.53;;;8.70;99.90;;;;;;4973685;28;20439;-91
2021/03/20 09:25:35;;;;;;;11.10;7.32;;;8.70;99.90;;;;;;4970967;28;20077;-92
2021/03/20 09:28:05;;;;;;;12.10;7.28;;;8.80;99.90;;;;;;4965561;28;20028;-92
2021/03/20 09:30:47;;;;;;;11.43;6.72;;;8.90;99.90;;;;;;4966033;28;20054;-91
2021/03/20 09:33:19;;;;;;;11.95;7.88;;;8.90;99.90;;;;;;4969912;28;20488;-93
2021/03/20 09:35:51;;;;;;;12.60;7.55;;;9.10;99.90;;;;;;4966922;28;20030;-92
2021/03/20 09:38:37;;;;;;;12.63;7.35;;;9.10;99.90;;;;;;4970368;28;20035;-92
2021/03/20 09:41:15;;;;;;;10.43;6.95;;;9.20;99.90;;;;;;4967851;28;20037;-90
2021/03/20 09:43:55;;;;;;;12.52;7.57;;;9.30;99.90;;;;;;4970200;28;20066;-91
2021/03/20 09:46:39;;;;;;;10.77;7.55;;;9.40;99.90;;;;;;4963114;28;20038;-91
2021/03/20 09:49:08;;;;;;;13.27;7.75;;;9.50;99.90;;;;;;4966610;28;20110;-92
2021/03/20 09:51:53;;;;;;;13.63;7.65;;;9.60;99.90;;;;;;4975977;28;20034;-92
2021/03/20 09:54:28;;;;;;;16.15;8.55;;;9.60;99.90;;;;;;4975704;28;20031;-91
2021/03/20 09:59:42;;;;;;;12.27;7.95;;;9.90;99.90;;;;;;4974952;28;20089;-92
2021/03/20 10:02:13;;;;;;;12.57;8.38;;;10.00;99.90;;;;;;4972393;28;20486;-93
2021/03/20 10:04:57;;;;;;;13.82;8.05;;;10.10;99.90;;;;;;4971727;28;20023;-92
2021/03/20 10:07:26;;;;;;;13.15;8.32;;;10.20;99.90;;;;;;4972314;28;20056;-92
2021/03/20 10:10:10;;;;;;;19.15;8.32;;;10.30;99.90;;;;;;4980401;28;20045;-92
2021/03/20 10:12:50;;;;;;;15.20;9.85;;;10.30;99.90;;;;;;4979538;28;20035;-93
2021/03/20 10:15:35;;;;;;;24.40;13.25;;;10.40;99.90;;;;;;4976779;28;20547;-92
2021/03/20 10:18:23;;;;;;;27.30;14.25;;;10.40;99.90;;;;;;4971813;28;20047;-91
2021/03/20 10:20:55;;;;;;;25.70;14.52;;;10.40;99.90;;;;;;4974965;28;20031;-90
2021/03/20 10:23:26;;;;;;;26.20;13.90;;;10.40;99.90;;;;;;4976460;28;20026;-92
2021/03/20 10:25:57;;;;;;;27.48;14.63;;;10.40;99.90;;;;;;4977902;28;20130;-91
2021/03/20 10:28:29;;;;;;;;;;;10.50;99.90;;;;;;4978857;28;20106;-94
2021/03/20 10:31:10;;;;;;;26.77;14.88;;;10.50;99.90;;;;;;4972758;28;19921;-93
2021/03/20 10:33:38;;;;;;;32.13;17.85;;;10.50;99.90;;;;;;4979933;28;20101;-88
2021/03/20 10:36:19;;;;;;;32.80;18.17;;;10.60;99.90;;;;;;4975616;28;20026;-94
2021/03/20 10:38:49;;;;;;;34.58;18.85;;;10.70;99.90;;;;;;4970934;28;20071;-92
2021/03/20 10:41:22;;;;;;;36.65;18.98;;;10.80;99.90;;;;;;4981433;28;20049;-90
2021/03/20 10:43:52;;;;;;;34.75;17.75;;;10.90;99.90;;;;;;4973986;28;20101;-91
2021/03/20 10:46:23;;;;;;;32.17;18.08;;;11.00;99.90;;;;;;4979597;28;20019;-90
2021/03/20 10:48:51;;;;;;;28.40;16.30;;;11.10;99.90;;;;;;4981234;28;20027;-92
2021/03/20 10:51:19;;;;;;;31.10;16.05;;;11.30;99.90;;;;;;4976477;28;20026;-91
2021/03/20 10:53:52;;;;;;;28.45;15.77;;;11.30;99.90;;;;;;4975848;28;20055;-92
2021/03/20 10:56:33;;;;;;;31.02;15.98;;;11.30;99.90;;;;;;4979758;28;20022;-89
2021/03/20 10:59:00;;;;;;;25.58;14.77;;;11.30;99.90;;;;;;4975900;28;20058;-91
2021/03/20 11:01:35;;;;;;;29.85;17.70;;;11.30;99.90;;;;;;4983968;28;20094;-92
2021/03/20 11:04:04;;;;;;;25.70;14.65;;;11.40;99.90;;;;;;4978546;28;20097;-92
2021/03/20 11:06:31;;;;;;;27.65;15.27;;;11.40;99.90;;;;;;4987698;28;20042;-90
2021/03/20 11:09:34;;;;;;;32.55;17.90;;;11.50;99.90;;;;;;4980096;28;20025;-89
2021/03/20 11:12:06;;;;;;;26.25;14.93;;;11.50;99.90;;;;;;4974345;28;20039;-93
2021/03/20 11:14:49;;;;;;;31.27;16.63;;;11.60;99.90;;;;;;4985188;28;20496;-92
2021/03/20 11:17:20;;;;;;;29.02;16.08;;;11.60;99.90;;;;;;4979375;28;20133;-92
2021/03/20 11:19:47;;;;;;;28.13;16.20;;;11.60;99.90;;;;;;4959174;28;20463;-92
2021/03/20 11:22:24;;;;;;;31.50;16.13;;;11.60;99.90;;;;;;4974988;28;20114;-92
2021/03/20 11:24:59;;;;;;;27.75;15.48;;;11.50;99.90;;;;;;4983409;28;20025;-90
2021/03/20 11:27:29;;;;;;;29.15;16.48;;;11.50;99.90;;;;;;4982103;28;20113;-92
2021/03/20 11:30:07;;;;;;;30.63;16.27;;;11.50;99.90;;;;;;4988704;28;20018;-90
2021/03/20 11:32:40;;;;;;;28.05;16.27;;;11.50;99.90;;;;;;4973445;28;20031;-93
2021/03/20 11:35:28;;;;;;;28.05;16.30;;;11.60;99.90;;;;;;4959082;28;20042;-92
2021/03/20 11:37:59;;;;;;;31.73;18.65;;;11.50;99.90;;;;;;4980113;28;20081;-94
2021/03/20 11:40:34;;;;;;;35.53;17.90;;;11.40;99.90;;;;;;4980020;28;20030;-93
2021/03/20 11:43:25;;;;;;;25.65;13.75;;;11.30;99.90;;;;;;4974998;28;20037;-95
2021/03/20 11:45:53;;;;;;;33.88;17.60;;;11.20;99.90;;;;;;4974591;28;20117;-94
2021/03/20 11:48:31;;;;;;;29.13;16.02;;;11.10;99.90;;;;;;4983240;28;20031;-93
2021/03/20 11:51:00;;;;;;;28.13;16.85;;;11.10;99.90;;;;;;4976331;28;20086;-93
2021/03/20 11:53:35;;;;;;;32.13;18.10;;;11.10;99.90;;;;;;4978410;28;20023;-96
2021/03/20 11:56:17;;;;;;;29.42;15.95;;;11.10;99.90;;;;;;4977794;28;20018;-94
2021/03/20 11:58:54;;;;;;;26.98;15.52;;;11.10;99.90;;;;;;4964359;28;20077;-92
2021/03/20 12:01:32;;;;;;;30.77;16.60;;;11.20;99.90;;;;;;4977466;28;20023;-94
2021/03/20 12:04:19;;;;;;;23.45;13.32;;;11.30;99.90;;;;;;4964355;28;20034;-93
2021/03/20 12:06:45;;;;;;;25.45;13.82;;;11.30;99.90;;;;;;4961717;28;20038;-93
2021/03/20 12:09:23;;;;;;;27.83;14.38;;;11.30;99.90;;;;;;4971954;28;20428;-93
2021/03/20 12:11:49;;;;;;;24.02;13.15;;;11.20;99.90;;;;;;4975232;28;20563;-94
2021/03/20 12:14:41;;;;;;;24.05;13.48;;;11.20;99.90;;;;;;4983947;28;20030;-94
2021/03/20 12:17:14;;;;;;;23.20;13.65;;;11.10;99.90;;;;;;4984164;28;20045;-92
2021/03/20 12:19:57;;;;;;;24.38;12.70;;;11.10;99.90;;;;;;4979662;28;20022;-94
2021/03/20 12:22:51;;;;;;;20.27;12.13;;;11.10;99.90;;;;;;4975923;28;20056;-94
2021/03/20 12:25:28;;;;;;;16.55;11.18;;;11.20;99.90;;;;;;4976445;28;20031;-94
2021/03/20 12:28:19;;;;;;;16.02;9.90;;;11.30;99.90;;;;;;4952459;28;20015;-95
2021/03/20 12:30:45;;;;;;;17.73;10.25;;;11.30;99.90;;;;;;4976141;28;20039;-91
2021/03/20 12:33:11;;;;;;;17.90;10.90;;;11.40;99.90;;;;;;4968158;28;20053;-92
2021/03/20 12:35:48;;;;;;;16.98;10.73;;;11.40;99.90;;;;;;4987070;28;20025;-95
2021/03/20 12:38:24;;;;;;;14.13;8.27;;;11.50;99.90;;;;;;4985804;28;20137;-88
2021/03/20 12:41:02;;;;;;;15.48;10.07;;;11.50;99.90;;;;;;4998842;28;20521;-92
2021/03/20 12:43:36;;;;;;;16.55;8.80;;;11.60;99.90;;;;;;4998803;28;20015;-91
2021/03/20 12:46:05;;;;;;;13.20;8.27;;;11.60;99.90;;;;;;4988108;28;20189;-92
2021/03/20 12:48:33;;;;;;;13.95;8.68;;;11.70;99.90;;;;;;4980204;28;20019;-92
2021/03/20 12:51:07;;;;;;;14.57;8.85;;;11.80;99.90;;;;;;4975994;28;20027;-92
2021/03/20 12:53:34;;;;;;;12.35;7.57;;;11.90;99.90;;;;;;4972826;28;20054;-94
2021/03/20 12:56:01;;;;;;;14.27;8.27;;;12.00;99.90;;;;;;4971916;28;20022;-93
2021/03/20 12:58:27;;;;;;;11.95;7.80;;;12.00;99.90;;;;;;4974760;28;20063;-92
2021/03/20 13:00:52;;;;;;;12.90;7.38;;;12.00;99.90;;;;;;4967891;28;20535;-92
2021/03/20 13:03:20;;;;;;;12.15;7.30;;;12.00;99.90;;;;;;4970011;28;20508;-92
2021/03/20 13:05:46;;;;;;;11.98;6.85;;;12.00;99.90;;;;;;4971738;28;20046;-92
2021/03/20 13:08:12;;;;;;;10.60;7.35;;;12.10;99.90;;;;;;4973273;28;20035;-93
2021/03/20 13:10:39;;;;;;;9.75;6.85;;;12.00;99.90;;;;;;4969050;28;20035;-95
2021/03/20 13:13:06;;;;;;;13.02;7.80;;;12.00;99.90;;;;;;4970668;28;20053;-92
2021/03/20 13:15:31;;;;;;;11.98;7.28;;;12.00;99.90;;;;;;4974816;28;20483;-94
2021/03/20 13:17:57;;;;;;;9.55;6.57;;;12.00;99.90;;;;;;4975173;28;20037;-96
2021/03/20 13:20:23;;;;;;;10.48;6.55;;;11.90;99.90;;;;;;4993992;28;20027;-94
2021/03/20 13:22:50;;;;;;;9.48;6.70;;;11.90;99.90;;;;;;4976211;28;20475;-95
2021/03/20 13:25:26;;;;;;;10.38;6.30;;;11.80;99.90;;;;;;4974784;28;20138;-95
2021/03/20 13:27:52;;;;;;;8.10;5.32;;;11.90;99.90;;;;;;4994000;28;20022;-93
2021/03/20 13:30:26;;;;;;;8.45;4.70;;;12.00;99.90;;;;;;4978700;28;20022;-94
2021/03/20 13:32:56;;;;;;;7.13;5.13;;;12.10;99.90;;;;;;4978745;28;20072;-94
2021/03/20 13:35:26;;;;;;;8.05;5.78;;;12.30;99.90;;;;;;4977597;28;20105;-93